Sharpsburg, Maryland
Current Conditions -  °F | °C
As of 8:53 PM on Wednesday 17 Dec 2014 (Local Time) from KMRB Reporting Station
Overcast Overcast  
Wind Chill: 30°   Ceiling: 4000
Heat Index: 38°   Visibility: 10mi
Dew Point: 21°   Wind: 14mph
Humidity: 51%   Direction: 290°WNW
Pressure: 30.08"   Gusts: NA
Location:  39.46°N, 77.75°W
Report Text: KMRB 180153Z 29012KT 10SM OVC040 03/M06 A3008 RMK AO2 SLP188 T00331061
Loading
Personal Weather Stations






























Interactive Weather Map New forecast layout! Learn more

10-Day Weather Forecast

Advertisements
Track Severe Weather on mobile